Time;durP1;ratioP1;P1;durP2;ratioP2;P2;SDS_P1;SDS_P2;PMS_P1;PMS_P2;Temp;Humidity;BMP_temperature;BMP_pressure;BME280_temperature;BME280_humidity;BME280_pressure;Samples;Min_cycle;Max_cycle;Signal;HPM_P1;HPM_P2
2021/08/06 00:01:20;;;;;;;28.85;18.52;;;;;;;20.95;100.00;100290.16;1691008;83;21101;-84
2021/08/06 00:03:48;;;;;;;23.65;17.23;;;;;;;21.00;100.00;100284.30;1663801;83;21043;-85
2021/08/06 00:06:15;;;;;;;22.58;17.57;;;;;;;21.01;100.00;100283.29;1699737;83;21596;-83
2021/08/06 00:08:44;;;;;;;21.77;17.62;;;;;;;20.98;100.00;100279.69;1680535;83;21513;-83
2021/08/06 00:11:11;;;;;;;26.15;16.93;;;;;;;20.92;100.00;100280.46;1670247;83;21027;-83
2021/08/06 00:13:39;;;;;;;24.67;17.92;;;;;;;20.88;100.00;100281.35;1700394;83;21062;-82
2021/08/06 00:16:06;;;;;;;20.82;16.62;;;;;;;20.87;100.00;100284.20;1661116;83;21071;-84
2021/08/06 00:18:33;;;;;;;19.82;17.07;;;;;;;20.87;100.00;100287.65;1696451;83;21098;-83
2021/08/06 00:21:00;;;;;;;20.50;16.75;;;;;;;20.88;100.00;100291.10;1685721;83;21150;-83
2021/08/06 00:23:28;;;;;;;19.50;17.10;;;;;;;20.88;100.00;100288.45;1695986;83;21110;-83
2021/08/06 00:25:56;;;;;;;21.73;17.80;;;;;;;20.89;100.00;100295.39;1681195;83;21545;-82
2021/08/06 00:28:23;;;;;;;26.23;17.65;;;;;;;20.89;100.00;100308.62;1680516;83;21063;-82
2021/08/06 00:30:50;;;;;;;21.25;17.37;;;;;;;20.88;100.00;100314.43;1710111;83;21015;-83
2021/08/06 00:33:18;;;;;;;22.60;17.60;;;;;;;20.84;100.00;100326.91;1667830;83;21102;-84
2021/08/06 00:35:45;;;;;;;19.70;17.12;;;;;;;20.77;100.00;100338.25;1709406;83;21023;-83
2021/08/06 00:38:12;;;;;;;20.05;17.55;;;;;;;20.67;100.00;100340.36;1676180;84;21471;-83
2021/08/06 00:40:40;;;;;;;23.45;17.85;;;;;;;20.58;100.00;100340.16;1693706;83;21641;-83
2021/08/06 00:43:07;;;;;;;24.55;19.20;;;;;;;20.55;100.00;100323.36;1663024;83;21505;-83
2021/08/06 00:45:35;;;;;;;32.40;20.43;;;;;;;20.51;100.00;100319.44;1693710;83;22607;-83
2021/08/06 00:48:05;;;;;;;20.97;18.52;;;;;;;20.33;100.00;100324.64;1694373;83;21062;-83
2021/08/06 00:50:33;;;;;;;21.93;18.30;;;;;;;20.15;100.00;100326.38;1690870;83;21066;-82
2021/08/06 00:53:01;;;;;;;21.62;18.62;;;;;;;20.06;100.00;100336.73;1704695;83;20986;-83
2021/08/06 00:55:29;;;;;;;21.07;18.65;;;;;;;20.08;100.00;100330.77;1707686;83;21458;-84
2021/08/06 00:57:57;;;;;;;20.75;18.30;;;;;;;20.11;100.00;100333.86;1660693;83;21111;-83
2021/08/06 01:00:25;;;;;;;29.15;18.87;;;;;;;20.13;100.00;100339.78;1679867;83;21031;-83
2021/08/06 01:03:25;;;;;;;20.10;18.05;;;;;;;20.14;100.00;100332.66;1652771;83;22361;-83
2021/08/06 01:06:10;;;;;;;21.30;18.15;;;;;;;20.07;100.00;100329.13;1702977;83;21434;-83
2021/08/06 01:08:49;;;;;;;19.25;16.95;;;;;;;20.01;100.00;100322.27;1687772;83;21098;-83
2021/08/06 01:11:22;;;;;;;21.33;18.35;;;;;;;20.00;100.00;100315.83;1709983;83;21170;-85
2021/08/06 01:13:57;;;;;;;30.68;19.40;;;;;;;20.02;100.00;100313.83;1707650;83;21177;-83
2021/08/06 01:16:32;;;;;;;19.90;17.37;;;;;;;20.09;100.00;100317.88;1693270;83;21035;-83
2021/08/06 01:19:26;;;;;;;23.40;17.65;;;;;;;20.12;100.00;100315.68;1701545;83;21046;-83
2021/08/06 01:22:11;;;;;;;21.97;18.50;;;;;;;20.12;100.00;100316.16;1699396;83;21074;-83
2021/08/06 01:24:41;;;;;;;27.15;18.27;;;;;;;20.12;100.00;100322.28;1626087;83;21156;-84
2021/08/06 01:27:08;;;;;;;25.25;18.85;;;;;;;20.14;100.00;100316.33;1704642;83;21110;-84
2021/08/06 01:29:36;;;;;;;27.00;18.57;;;;;;;20.15;100.00;100313.97;1674300;83;21165;-82
2021/08/06 01:32:06;;;;;;;22.22;18.07;;;;;;;20.15;100.00;100317.93;1655349;84;21030;-84
2021/08/06 01:34:33;;;;;;;27.85;19.00;;;;;;;20.13;100.00;100308.07;1692032;83;21532;-82
2021/08/06 01:37:01;;;;;;;26.93;18.87;;;;;;;20.11;100.00;100299.50;1702841;83;21816;-83
2021/08/06 01:39:33;;;;;;;27.80;19.45;;;;;;;20.09;100.00;100300.18;1686062;83;21035;-84
2021/08/06 01:42:28;;;;;;;29.32;19.00;;;;;;;20.07;100.00;100302.19;1699909;83;21236;-83
2021/08/06 01:44:57;;;;;;;32.63;19.42;;;;;;;20.09;100.00;100303.34;1696597;83;21046;-84
2021/08/06 01:47:31;;;;;;;30.25;19.67;;;;;;;20.09;100.00;100302.83;1690619;83;21065;-84
2021/08/06 01:50:06;;;;;;;27.90;19.70;;;;;;;20.08;100.00;100295.89;1673131;83;21435;-84
2021/08/06 01:52:50;;;;;;;28.17;20.20;;;;;;;20.07;100.00;100292.93;1704826;83;21074;-82
2021/08/06 01:55:19;;;;;;;26.25;19.48;;;;;;;20.05;100.00;100288.36;1683397;83;21106;-82
2021/08/06 01:57:49;;;;;;;27.50;18.82;;;;;;;20.01;100.00;100284.44;1667314;83;21027;-84
2021/08/06 02:00:17;;;;;;;24.72;19.00;;;;;;;19.94;100.00;100281.73;1695261;83;21078;-84
2021/08/06 02:02:49;;;;;;;26.33;19.55;;;;;;;19.90;100.00;100277.00;1670794;83;21077;-83
2021/08/06 02:05:18;;;;;;;29.10;19.57;;;;;;;19.82;100.00;100279.20;1691901;83;21517;-84
2021/08/06 02:07:46;;;;;;;41.95;19.75;;;;;;;19.77;100.00;100273.66;1650823;83;21110;-84
2021/08/06 02:10:15;;;;;;;50.52;20.10;;;;;;;19.72;100.00;100275.53;1659121;83;20983;-83
2021/08/06 02:12:43;;;;;;;31.45;20.45;;;;;;;19.74;100.00;100274.86;1702753;83;21022;-84
2021/08/06 02:15:13;;;;;;;28.27;19.75;;;;;;;19.78;100.00;100270.83;1699054;83;21167;-83
2021/08/06 02:17:43;;;;;;;29.55;19.35;;;;;;;19.83;100.00;100271.08;1671328;83;21195;-84
2021/08/06 02:20:20;;;;;;;27.55;19.35;;;;;;;19.83;100.00;100270.27;1684552;83;21061;-83
2021/08/06 02:22:50;;;;;;;21.95;19.60;;;;;;;19.82;100.00;100279.20;1703776;83;21458;-83
2021/08/06 02:25:22;;;;;;;24.25;20.43;;;;;;;19.81;100.00;100272.27;1683237;84;20971;-84
2021/08/06 02:27:54;;;;;;;26.07;20.95;;;;;;;19.74;100.00;100277.98;1684743;83;21098;-83
2021/08/06 02:30:23;;;;;;;23.83;19.07;;;;;;;19.61;100.00;100274.18;1697309;83;21521;-83
2021/08/06 02:32:52;;;;;;;22.30;19.73;;;;;;;19.57;100.00;100278.69;1707843;83;21042;-84
2021/08/06 02:35:19;;;;;;;24.45;19.07;;;;;;;19.48;100.00;100284.06;1706618;83;21125;-83
2021/08/06 02:37:48;;;;;;;25.75;20.97;;;;;;;19.45;100.00;100283.09;1688607;83;21073;-84
2021/08/06 02:40:15;;;;;;;24.47;20.70;;;;;;;19.38;100.00;100286.14;1692364;83;21181;-82
2021/08/06 02:42:44;;;;;;;29.25;22.40;;;;;;;19.23;100.00;100278.20;1664340;83;21026;-84
2021/08/06 02:45:11;;;;;;;28.90;22.20;;;;;;;19.10;100.00;100280.65;1655218;83;21078;-82
2021/08/06 02:47:38;;;;;;;27.48;21.30;;;;;;;19.00;100.00;100277.77;1691946;83;21020;-84
2021/08/06 02:50:06;;;;;;;36.17;22.52;;;;;;;18.91;100.00;100280.95;1700437;83;21581;-82
2021/08/06 02:52:34;;;;;;;32.45;22.42;;;;;;;18.89;100.00;100281.63;1709072;83;21843;-83
2021/08/06 02:55:01;;;;;;;24.55;21.33;;;;;;;18.95;100.00;100288.55;1665800;83;21552;-83
2021/08/06 02:57:28;;;;;;;29.12;23.62;;;;;;;19.01;100.00;100283.88;1652523;83;20971;-83
2021/08/06 02:59:56;;;;;;;54.70;31.07;;;;;;;19.01;100.00;100282.55;1650752;83;21042;-83
2021/08/06 03:02:24;;;;;;;80.87;44.55;;;;;;;19.02;100.00;100275.77;1680373;83;21068;-82
2021/08/06 03:04:52;;;;;;;115.55;59.25;;;;;;;19.12;100.00;100277.34;1676962;84;21083;-83
2021/08/06 03:07:20;;;;;;;79.12;47.03;;;;;;;19.26;100.00;100269.12;1687690;83;21537;-83
2021/08/06 03:09:48;;;;;;;38.60;25.57;;;;;;;19.34;100.00;100260.61;1699772;83;21057;-82
2021/08/06 03:12:15;;;;;;;33.67;22.82;;;;;;;19.44;100.00;100256.37;1703958;83;21494;-83
2021/08/06 03:14:44;;;;;;;27.95;21.52;;;;;;;19.38;100.00;100261.06;1681636;83;21641;-82
2021/08/06 03:17:12;;;;;;;25.15;21.95;;;;;;;19.25;100.00;100262.20;1707307;83;22867;-84
2021/08/06 03:19:42;;;;;;;30.97;22.43;;;;;;;19.28;100.00;100261.83;1695401;83;21038;-83
2021/08/06 03:22:09;;;;;;;27.65;23.73;;;;;;;19.27;100.00;100250.46;1672554;83;21558;-83
2021/08/06 03:24:37;;;;;;;28.05;21.97;;;;;;;19.26;100.00;100234.81;1690425;83;21431;-83
2021/08/06 03:27:04;;;;;;;33.38;24.07;;;;;;;19.27;100.00;100243.86;1654671;85;21644;-82
2021/08/06 03:29:31;;;;;;;27.05;22.55;;;;;;;19.30;100.00;100247.47;1699002;82;21078;-83
2021/08/06 03:31:59;;;;;;;31.95;24.15;;;;;;;19.32;100.00;100248.08;1711541;82;21137;-81
2021/08/06 03:34:26;;;;;;;30.70;23.73;;;;;;;19.31;100.00;100243.00;1720190;82;21121;-83
2021/08/06 03:36:55;;;;;;;28.83;23.87;;;;;;;19.31;100.00;100242.48;1722837;82;21097;-83
2021/08/06 03:39:23;;;;;;;34.40;22.73;;;;;;;19.33;100.00;100250.23;1656139;84;21121;-83
2021/08/06 03:41:50;;;;;;;36.15;26.17;;;;;;;19.40;100.00;100249.83;1715487;82;21058;-83
2021/08/06 03:44:17;;;;;;;32.17;25.48;;;;;;;19.45;100.00;100260.65;1690824;83;21078;-84
2021/08/06 03:46:45;;;;;;;28.80;24.12;;;;;;;19.45;100.00;100254.05;1714607;82;21127;-82
2021/08/06 03:49:12;;;;;;;33.15;24.82;;;;;;;19.49;100.00;100255.82;1713079;82;21018;-83
2021/08/06 03:51:39;;;;;;;32.28;25.17;;;;;;;19.52;100.00;100257.59;1718205;82;21102;-83
2021/08/06 03:54:07;;;;;;;33.45;25.52;;;;;;;19.57;100.00;100254.41;1703840;82;21047;-83
2021/08/06 03:56:35;;;;;;;36.73;28.02;;;;;;;19.63;100.00;100264.23;1719940;82;21011;-82
2021/08/06 03:59:02;;;;;;;32.90;25.25;;;;;;;19.67;100.00;100259.40;1709770;82;21007;-83
2021/08/06 04:01:29;;;;;;;38.25;26.37;;;;;;;19.67;100.00;100257.59;1722596;82;21074;-83
2021/08/06 04:03:57;;;;;;;35.63;26.68;;;;;;;19.69;100.00;100258.72;1664008;81;21118;-82
2021/08/06 04:06:24;;;;;;;42.17;28.73;;;;;;;19.71;100.00;100263.33;1677017;83;21171;-80
2021/08/06 04:08:52;;;;;;;39.55;27.13;;;;;;;19.72;100.00;100251.77;1721304;82;21018;-82
2021/08/06 04:11:20;;;;;;;44.15;27.00;;;;;;;19.78;100.00;100246.25;1662066;84;21006;-82
2021/08/06 04:13:49;;;;;;;41.88;26.33;;;;;;;19.89;100.00;100247.11;1657509;84;20978;-82
2021/08/06 04:16:16;;;;;;;36.73;26.90;;;;;;;20.03;100.00;100253.87;1703006;82;21606;-82
2021/08/06 04:18:43;;;;;;;41.08;27.22;;;;;;;20.14;100.00;100249.41;1670273;83;21158;-83
2021/08/06 04:21:11;;;;;;;31.90;26.57;;;;;;;20.27;100.00;100244.25;1722595;82;20958;-84
2021/08/06 04:23:38;;;;;;;42.15;27.05;;;;;;;20.40;100.00;100249.37;1713411;82;21556;-83
2021/08/06 04:26:05;;;;;;;42.43;27.40;;;;;;;20.49;100.00;100234.50;1673531;84;21058;-82
2021/08/06 04:28:32;;;;;;;38.53;28.42;;;;;;;20.60;100.00;100232.35;1664169;84;21086;-83
2021/08/06 04:31:02;;;;;;;37.28;28.05;;;;;;;20.71;100.00;100241.08;1617031;85;21184;-83
2021/08/06 04:33:29;;;;;;;36.55;27.30;;;;;;;20.77;100.00;100238.20;1720924;82;21473;-82
2021/08/06 04:35:56;;;;;;;36.35;27.27;;;;;;;20.86;100.00;100242.87;1667681;83;21576;-83
2021/08/06 04:38:23;;;;;;;48.95;29.70;;;;;;;20.93;100.00;100238.44;1694624;82;21104;-83
2021/08/06 04:40:51;;;;;;;40.78;27.95;;;;;;;21.01;100.00;100234.33;1667170;83;21090;-83
2021/08/06 04:43:21;;;;;;;40.30;28.00;;;;;;;21.09;100.00;100240.80;1667898;85;22261;-83
2021/08/06 04:45:49;;;;;;;37.98;28.30;;;;;;;21.17;100.00;100237.16;1672971;84;20975;-83
2021/08/06 04:48:21;;;;;;;49.30;28.12;;;;;;;21.25;100.00;100230.38;1721112;82;21453;-86
2021/08/06 04:50:50;;;;;;;43.52;29.10;;;;;;;21.33;100.00;100236.53;1704179;82;21031;-85
2021/08/06 04:53:17;;;;;;;52.20;32.25;;;;;;;21.39;100.00;100240.55;1698192;82;21085;-80
2021/08/06 04:55:44;;;;;;;36.38;29.20;;;;;;;21.47;100.00;100236.94;1666238;83;21138;-81
2021/08/06 04:58:11;;;;;;;40.52;28.38;;;;;;;21.53;100.00;100234.81;1691150;83;21481;-83
2021/08/06 05:00:38;;;;;;;35.73;27.48;;;;;;;21.62;100.00;100232.03;1715412;82;21722;-81
2021/08/06 05:03:07;;;;;;;37.67;29.00;;;;;;;21.71;100.00;100239.59;1715094;82;21140;-83
2021/08/06 05:05:42;;;;;;;33.20;27.17;;;;;;;21.78;100.00;100244.09;1712896;82;21066;-81
2021/08/06 05:08:09;;;;;;;45.15;26.77;;;;;;;21.85;100.00;100241.80;1703299;82;21769;-82
2021/08/06 05:10:36;;;;;;;36.60;26.45;;;;;;;21.92;100.00;100245.77;1693223;82;21003;-80
2021/08/06 05:13:03;;;;;;;44.88;26.07;;;;;;;22.01;100.00;100243.25;1708032;82;21608;-79
2021/08/06 05:15:31;;;;;;;32.42;25.75;;;;;;;22.12;100.00;100251.65;1678850;83;21026;-81
2021/08/06 05:18:00;;;;;;;31.62;24.18;;;;;;;22.19;100.00;100245.84;1641570;85;21102;-81
2021/08/06 05:20:27;;;;;;;38.53;25.95;;;;;;;22.29;100.00;100252.91;1625603;86;21817;-81
2021/08/06 05:22:55;;;;;;;31.17;24.12;;;;;;;22.36;100.00;100247.11;1638390;85;21763;-80
2021/08/06 05:25:22;;;;;;;38.67;26.17;;;;;;;22.44;100.00;100243.98;1667892;84;21040;-81
2021/08/06 05:27:49;;;;;;;41.95;25.85;;;;;;;22.51;100.00;100236.84;1663139;84;21030;-80
2021/08/06 05:30:20;;;;;;;33.45;27.17;;;;;;;22.58;100.00;100244.81;1665555;85;21116;-82
2021/08/06 05:32:46;;;;;;;40.70;27.50;;;;;;;22.65;100.00;100232.36;1635684;86;21120;-81
2021/08/06 05:35:13;;;;;;;43.33;28.87;;;;;;;22.73;100.00;100229.99;1720775;81;21025;-79
2021/08/06 05:37:41;;;;;;;41.18;28.75;;;;;;;22.79;100.00;100217.25;1710621;82;21061;-79
2021/08/06 05:40:09;;;;;;;33.83;27.05;;;;;;;22.84;100.00;100216.91;1698672;83;21583;-81
2021/08/06 05:42:36;;;;;;;36.42;30.82;;;;;;;22.91;100.00;100208.95;1688193;83;21604;-83
2021/08/06 05:45:04;;;;;;;43.33;30.45;;;;;;;22.97;100.00;100206.79;1689897;83;21217;-81
2021/08/06 05:47:52;;;;;;;45.43;33.15;;;;;;;23.03;100.00;100205.67;1709784;82;21058;-79
2021/08/06 05:50:24;;;;;;;39.33;29.50;;;;;;;23.08;100.00;100204.00;1690194;83;21070;-79
2021/08/06 05:52:52;;;;;;;33.25;26.25;;;;;;;23.15;100.00;100196.03;1660046;84;20986;-80
2021/08/06 05:55:21;;;;;;;30.70;27.13;;;;;;;23.23;100.00;100195.03;1677344;83;21079;-80
2021/08/06 05:57:51;;;;;;;35.13;26.17;;;;;;;23.29;100.00;100182.23;1642366;84;21089;-81
2021/08/06 06:00:18;;;;;;;28.77;25.75;;;;;;;23.36;100.00;100183.52;1682303;83;21011;-81
2021/08/06 06:02:47;;;;;;;32.30;27.42;;;;;;;23.43;100.00;100175.03;1679511;82;21477;-84
2021/08/06 06:05:16;;;;;;;32.30;28.05;;;;;;;23.51;100.00;100184.09;1704941;82;21010;-80
2021/08/06 06:07:46;;;;;;;31.17;27.82;;;;;;;23.60;100.00;100178.81;1690292;82;21089;-82
2021/08/06 06:10:19;;;;;;;30.25;27.15;;;;;;;23.70;100.00;100189.50;1629314;83;21803;-82
2021/08/06 06:12:46;;;;;;;31.20;27.82;;;;;;;23.77;100.00;100188.95;1665204;84;21110;-82
2021/08/06 06:15:13;;;;;;;30.50;27.32;;;;;;;23.88;100.00;100189.61;1634334;84;21069;-82
2021/08/06 06:17:41;;;;;;;30.25;26.23;;;;;;;24.00;100.00;100166.34;1643209;83;21056;-82
2021/08/06 06:20:09;;;;;;;29.98;26.93;;;;;;;24.10;100.00;100148.90;1680528;83;21507;-82
2021/08/06 06:22:36;;;;;;;28.38;25.37;;;;;;;24.20;100.00;100149.73;1612730;86;21058;-80
2021/08/06 06:25:04;;;;;;;28.50;25.50;;;;;;;24.34;100.00;100154.94;1596099;88;21033;-81
2021/08/06 06:27:31;;;;;;;25.72;23.25;;;;;;;24.47;100.00;100162.82;1656788;85;22444;-80
2021/08/06 06:29:59;;;;;;;22.52;20.20;;;;;;;24.61;100.00;100156.84;1650077;83;21143;-81
2021/08/06 06:32:26;;;;;;;22.32;19.90;;;;;;;24.74;100.00;100150.60;1617725;86;21125;-81
2021/08/06 06:34:54;;;;;;;25.68;21.02;;;;;;;24.93;100.00;100143.96;1645684;86;21163;-82
2021/08/06 06:37:21;;;;;;;25.02;19.98;;;;;;;25.13;100.00;100140.53;1602364;86;21589;-80
2021/08/06 06:39:49;;;;;;;32.13;20.90;;;;;;;25.34;100.00;100139.78;1618009;86;21042;-82
2021/08/06 06:42:16;;;;;;;22.37;19.80;;;;;;;25.54;100.00;100132.89;1606651;86;21387;-83
2021/08/06 06:44:43;;;;;;;20.27;16.65;;;;;;;25.74;100.00;100137.94;1655361;86;21509;-81
2021/08/06 06:47:10;;;;;;;21.35;17.07;;;;;;;25.87;100.00;100132.92;1669455;85;21155;-80
2021/08/06 06:49:37;;;;;;;20.45;15.30;;;;;;;26.04;100.00;100133.59;1669639;85;21066;-80
2021/08/06 06:52:05;;;;;;;17.07;15.28;;;;;;;26.18;100.00;100138.20;1679848;85;21165;-81
2021/08/06 06:54:32;;;;;;;19.45;14.47;;;;;;;26.34;100.00;100128.17;1664292;84;21156;-82
2021/08/06 06:56:59;;;;;;;16.17;14.50;;;;;;;26.47;100.00;100135.67;1679549;85;21664;-83
2021/08/06 06:59:26;;;;;;;15.08;13.28;;;;;;;26.60;100.00;100142.09;1653842;85;21161;-82
2021/08/06 07:01:54;;;;;;;18.07;14.03;;;;;;;26.75;100.00;100140.30;1665941;85;21058;-81
2021/08/06 07:04:21;;;;;;;17.57;14.18;;;;;;;26.86;100.00;100137.34;1666657;85;20978;-80
2021/08/06 07:06:51;;;;;;;17.57;14.50;;;;;;;26.96;100.00;100139.41;1675069;85;21522;-80
2021/08/06 07:09:18;;;;;;;16.40;14.30;;;;;;;27.06;100.00;100141.75;1685130;85;21505;-80
2021/08/06 07:11:45;;;;;;;16.70;14.47;;;;;;;27.17;100.00;100143.30;1674755;85;21152;-80
2021/08/06 07:14:12;;;;;;;17.00;14.65;;;;;;;27.30;100.00;100136.33;1664570;85;21561;-81
2021/08/06 07:16:39;;;;;;;19.15;16.27;;;;;;;27.42;100.00;100128.80;1657343;85;21038;-80
2021/08/06 07:19:06;;;;;;;16.95;15.25;;;;;;;27.53;100.00;100131.45;1637389;84;21306;-80
2021/08/06 07:21:33;;;;;;;17.48;15.65;;;;;;;27.67;100.00;100124.45;1636419;85;21138;-81
2021/08/06 07:24:01;;;;;;;18.85;16.95;;;;;;;27.79;100.00;100129.22;1668109;84;21159;-80
2021/08/06 07:26:29;;;;;;;20.85;16.07;;;;;;;27.95;100.00;100126.80;1658613;85;21089;-81
2021/08/06 07:28:56;;;;;;;18.35;16.37;;;;;;;28.09;100.00;100121.43;1660317;85;21157;-79
2021/08/06 07:31:23;;;;;;;24.82;15.65;;;;;;;28.21;100.00;100121.84;1653322;83;21089;-80
2021/08/06 07:33:50;;;;;;;18.73;16.42;;;;;;;28.33;100.00;100119.36;1651585;85;22026;-81
2021/08/06 07:36:17;;;;;;;18.95;15.18;;;;;;;28.46;100.00;100120.09;1703414;81;21164;-81
2021/08/06 07:38:44;;;;;;;21.05;16.05;;;;;;;28.59;100.00;100114.91;1732108;82;21093;-81
2021/08/06 07:41:12;;;;;;;18.17;16.27;;;;;;;28.69;100.00;100113.68;1730699;82;21044;-81
2021/08/06 07:43:40;;;;;;;17.57;15.15;;;;;;;28.79;100.00;100111.71;1713454;82;21049;-82
2021/08/06 07:46:06;;;;;;;19.07;16.07;;;;;;;28.89;100.00;100116.38;1705435;82;21124;-82
2021/08/06 07:48:34;;;;;;;18.42;15.85;;;;;;;28.99;100.00;100129.08;1680479;82;21191;-82
2021/08/06 07:51:02;;;;;;;16.93;15.15;;;;;;;29.06;100.00;100135.05;1696789;82;21062;-81
2021/08/06 07:53:32;;;;;;;16.85;15.15;;;;;;;29.08;100.00;100134.28;1700711;82;21820;-82
2021/08/06 07:56:01;;;;;;;17.65;15.10;;;;;;;29.12;100.00;100139.43;1698479;82;21054;-82
2021/08/06 07:58:28;;;;;;;15.32;13.83;;;;;;;29.15;100.00;100142.94;1712669;82;21035;-82
2021/08/06 08:00:55;;;;;;;15.53;14.03;;;;;;;29.21;100.00;100143.80;1717263;82;21145;-80
2021/08/06 08:03:23;;;;;;;19.62;16.32;;;;;;;29.25;100.00;100143.56;1727750;82;21089;-82
2021/08/06 08:05:50;;;;;;;17.35;15.10;;;;;;;29.30;100.00;100138.80;1712754;82;21066;-81
2021/08/06 08:08:18;;;;;;;18.57;16.73;;;;;;;29.33;100.00;100138.33;1725169;81;21525;-82
2021/08/06 08:10:45;;;;;;;20.72;17.82;;;;;;;29.37;100.00;100128.20;1726871;82;20943;-82
2021/08/06 08:13:14;;;;;;;22.70;19.10;;;;;;;29.45;100.00;100137.64;1728708;82;21457;-82
2021/08/06 08:15:45;;;;;;;20.40;17.00;;;;;;;29.51;100.00;100131.28;1692300;82;21050;-81
2021/08/06 08:18:12;;;;;;;20.00;18.02;;;;;;;29.56;100.00;100141.26;1739656;80;21065;-81
2021/08/06 08:20:39;;;;;;;19.87;17.98;;;;;;;29.64;100.00;100139.97;1697561;82;21014;-80
2021/08/06 08:23:08;;;;;;;25.75;23.15;;;;;;;29.73;100.00;100143.81;1706800;82;21069;-83
2021/08/06 08:25:37;;;;;;;27.00;24.23;;;;;;;29.81;100.00;100140.66;1699121;82;21565;-83
2021/08/06 08:28:05;;;;;;;25.48;22.85;;;;;;;29.91;100.00;100146.64;1730654;82;21039;-81
2021/08/06 08:30:32;;;;;;;25.23;22.52;;;;;;;29.98;100.00;100142.44;1741170;81;21180;-79
2021/08/06 08:32:59;;;;;;;24.37;21.87;;;;;;;30.04;100.00;100145.44;1717307;82;21033;-82
2021/08/06 08:35:27;;;;;;;28.07;25.17;;;;;;;30.11;100.00;100142.54;1694787;82;21046;-80
2021/08/06 08:38:59;;;;;;;23.85;21.37;;;;;;;30.17;100.00;100140.95;1706494;83;21216;-82
2021/08/06 08:41:27;;;;;;;23.12;20.62;;;;;;;30.26;100.00;100148.02;1736517;81;21583;-83
2021/08/06 08:43:56;;;;;;;18.42;16.32;;;;;;;30.36;100.00;100136.52;1735745;82;21176;-80
2021/08/06 08:46:27;;;;;;;18.50;15.75;;;;;;;30.45;100.00;100134.97;1746145;82;21042;-80
2021/08/06 08:49:01;;;;;;;16.25;14.55;;;;;;;30.58;100.00;100141.79;1747937;81;26815;-80
2021/08/06 08:51:31;;;;;;;16.12;14.47;;;;;;;30.68;100.00;100147.22;1701740;82;21059;-83
2021/08/06 08:54:01;;;;;;;17.87;16.27;;;;;;;30.78;100.00;100137.56;1691045;82;20954;-80
2021/08/06 08:56:32;;;;;;;17.25;15.55;;;;;;;30.82;100.00;100139.47;1736393;82;21010;-83
2021/08/06 08:58:59;;;;;;;17.98;16.07;;;;;;;30.86;99.25;100134.38;1691982;82;21259;-82
2021/08/06 09:01:27;;;;;;;17.45;15.63;;;;;;;30.91;99.15;100129.56;1697355;83;21620;-81
2021/08/06 09:03:56;;;;;;;17.60;15.68;;;;;;;30.95;98.24;100132.01;1691155;82;21369;-82
2021/08/06 09:06:43;;;;;;;25.48;15.13;;;;;;;30.99;98.77;100130.39;1686421;83;20943;-82
2021/08/06 09:09:22;;;;;;;19.57;14.90;;;;;;;31.05;97.80;100125.30;1663974;83;21035;-83
2021/08/06 09:12:08;;;;;;;16.60;14.90;;;;;;;31.13;98.98;100130.19;1691587;83;21768;-82
2021/08/06 09:14:42;;;;;;;15.48;13.75;;;;;;;31.21;97.93;100128.09;1674957;83;21180;-79
2021/08/06 09:17:13;;;;;;;15.70;13.80;;;;;;;31.32;93.94;100128.36;1680869;84;21164;-81
2021/08/06 09:19:55;;;;;;;15.88;13.75;;;;;;;31.44;90.77;100122.73;1671738;84;21019;-82
2021/08/06 09:22:27;;;;;;;17.00;15.35;;;;;;;31.56;88.06;100121.95;1681052;85;21161;-81
2021/08/06 09:25:13;;;;;;;17.92;14.53;;;;;;;31.61;87.44;100110.36;1684078;85;21054;-79
2021/08/06 09:27:53;;;;;;;22.15;16.42;;;;;;;31.62;83.42;100110.11;1684765;85;21149;-81
2021/08/06 09:30:37;;;;;;;21.68;16.57;;;;;;;31.61;84.45;100108.50;1697479;82;21836;-81
2021/08/06 09:33:08;;;;;;;21.10;16.55;;;;;;;31.61;88.47;100106.33;1679862;84;21114;-81
2021/08/06 09:35:35;;;;;;;17.40;15.50;;;;;;;31.62;84.90;100098.53;1676369;84;21102;-80
2021/08/06 09:38:05;;;;;;;17.15;15.35;;;;;;;31.59;84.51;100099.88;1728713;82;21612;-82
2021/08/06 09:40:40;;;;;;;20.70;15.48;;;;;;;31.51;84.60;100086.96;1719425;83;21046;-82
2021/08/06 09:43:16;;;;;;;25.25;15.32;;;;;;;31.43;84.68;100082.11;1711067;82;21818;-81
2021/08/06 09:45:44;;;;;;;20.60;15.35;;;;;;;31.40;91.21;100075.39;1708569;83;20960;-81
2021/08/06 09:48:12;;;;;;;17.62;14.50;;;;;;;31.46;94.08;100072.97;1649851;84;21043;-82
2021/08/06 09:50:43;;;;;;;17.98;16.10;;;;;;;31.60;92.18;100073.80;1642481;84;21083;-80
2021/08/06 09:53:12;;;;;;;16.10;14.43;;;;;;;31.74;91.77;100070.86;1694638;82;21430;-83
2021/08/06 09:55:45;;;;;;;22.07;15.38;;;;;;;31.87;88.95;100061.95;1700213;83;21216;-81
2021/08/06 09:58:18;;;;;;;16.27;14.15;;;;;;;32.00;85.84;100058.72;1714691;83;21068;-81
2021/08/06 10:00:50;;;;;;;16.80;15.10;;;;;;;32.11;93.25;100046.03;1653864;83;21049;-81
2021/08/06 10:03:34;;;;;;;16.57;14.13;;;;;;;32.25;94.53;100048.95;1713273;83;22023;-80
2021/08/06 10:06:14;;;;;;;14.45;13.15;;;;;;;32.32;90.54;100041.42;1712772;83;21410;-82
2021/08/06 10:08:44;;;;;;;14.90;13.05;;;;;;;32.38;87.42;100033.58;1676796;83;21224;-82
2021/08/06 10:11:12;;;;;;;19.98;14.13;;;;;;;32.42;89.32;100031.14;1712448;83;20957;-81
2021/08/06 10:13:43;;;;;;;18.98;15.58;;;;;;;32.40;87.45;100030.08;1712437;83;20951;-81
2021/08/06 10:16:12;;;;;;;;;;;;;;;32.32;86.54;100027.13;1716520;83;21116;-80
2021/08/06 10:18:43;;;;;;;15.55;14.05;;;;;;;32.30;87.17;100020.68;1682614;83;20176;-81
2021/08/06 10:21:13;;;;;;;16.93;15.35;;;;;;;32.36;93.56;100023.61;1714038;82;21128;-82
2021/08/06 10:23:40;;;;;;;16.02;14.53;;;;;;;32.45;84.15;100021.14;1690853;83;21030;-82
2021/08/06 10:26:09;;;;;;;18.35;13.83;;;;;;;32.56;83.20;100014.63;1714289;83;21528;-81
2021/08/06 10:28:42;;;;;;;18.30;13.95;;;;;;;32.68;87.48;100007.56;1700694;83;21091;-79
2021/08/06 10:31:24;;;;;;;18.45;14.10;;;;;;;32.84;80.10;100011.54;1673187;83;22418;-82
2021/08/06 10:34:05;;;;;;;14.83;13.28;;;;;;;32.95;75.27;100008.23;1672364;83;21169;-82
2021/08/06 10:36:48;;;;;;;14.75;13.25;;;;;;;32.96;76.80;99997.71;1636579;86;21179;-81
2021/08/06 10:39:41;;;;;;;21.15;13.68;;;;;;;32.98;82.89;99993.64;1633660;84;21128;-79
2021/08/06 10:42:10;;;;;;;15.95;13.50;;;;;;;33.04;75.98;99990.38;1679692;84;21138;-82
2021/08/06 10:44:58;;;;;;;16.17;13.68;;;;;;;33.07;70.00;99991.70;1648767;84;21089;-82
2021/08/06 10:47:52;;;;;;;14.05;12.70;;;;;;;33.11;70.49;99974.67;1680780;83;21812;-84
2021/08/06 10:50:21;;;;;;;14.18;12.70;;;;;;;33.11;70.49;99974.67;1678056;83;20970;-80
2021/08/06 10:53:19;;;;;;;19.02;13.90;;;;;;;33.27;69.77;99977.24;1673796;84;21506;-81
2021/08/06 10:55:46;;;;;;;15.65;13.95;;;;;;;33.31;71.15;99967.51;1695409;83;21093;-82
2021/08/06 10:58:54;;;;;;;18.23;14.35;;;;;;;33.38;65.40;99967.19;1699807;83;20973;-82
2021/08/06 11:01:35;;;;;;;15.58;13.22;;;;;;;33.33;64.89;99963.47;1656890;83;21166;-83
2021/08/06 11:04:19;;;;;;;16.42;13.88;;;;;;;33.30;65.99;99961.84;1702002;83;20963;-84
2021/08/06 11:06:52;;;;;;;15.32;13.80;;;;;;;33.32;70.28;99954.31;1700149;83;21106;-82
2021/08/06 11:09:37;;;;;;;15.08;13.18;;;;;;;33.39;69.07;99949.92;1698430;83;21082;-81
2021/08/06 11:12:11;;;;;;;15.05;12.93;;;;;;;33.41;62.98;99945.84;1705032;83;21109;-81
2021/08/06 11:14:48;;;;;;;16.00;12.47;;;;;;;33.46;66.61;99942.30;1676135;83;21123;-83
2021/08/06 11:17:21;;;;;;;13.93;12.65;;;;;;;33.46;59.62;99932.84;1672230;83;21047;-83
2021/08/06 11:20:10;;;;;;;18.32;13.62;;;;;;;33.62;70.08;99915.41;1657193;85;21027;-82